sensor_id;sensor_type;location;lat;lon;timestamp;temperature;humidity
11221;DHT22;8517;53.546;10.104;2023-03-01T00:01:56;3.00;99.90
11221;DHT22;8517;53.546;10.104;2023-03-01T00:04:23;3.00;99.90
11221;DHT22;8517;53.546;10.104;2023-03-01T00:06:49;3.00;99.90
11221;DHT22;8517;53.546;10.104;2023-03-01T00:09:16;3.00;99.90
11221;DHT22;8517;53.546;10.104;2023-03-01T00:11:43;2.90;99.90
11221;DHT22;8517;53.546;10.104;2023-03-01T00:14:10;2.90;99.90
11221;DHT22;8517;53.546;10.104;2023-03-01T00:16:40;2.90;99.90
11221;DHT22;8517;53.546;10.104;2023-03-01T00:19:11;2.90;99.90
11221;DHT22;8517;53.546;10.104;2023-03-01T00:21:39;2.90;99.90
11221;DHT22;8517;53.546;10.104;2023-03-01T00:24:06;2.90;99.90
11221;DHT22;8517;53.546;10.104;2023-03-01T00:26:33;2.90;99.90
11221;DHT22;8517;53.546;10.104;2023-03-01T00:29:00;2.90;99.90
11221;DHT22;8517;53.546;10.104;2023-03-01T00:31:28;2.90;99.90
11221;DHT22;8517;53.546;10.104;2023-03-01T00:33:59;2.80;99.90
11221;DHT22;8517;53.546;10.104;2023-03-01T00:36:29;2.80;99.90
11221;DHT22;8517;53.546;10.104;2023-03-01T00:38:56;2.80;99.90
11221;DHT22;8517;53.546;10.104;2023-03-01T00:41:23;2.80;99.90
11221;DHT22;8517;53.546;10.104;2023-03-01T00:43:52;2.80;99.90
11221;DHT22;8517;53.546;10.104;2023-03-01T00:46:20;2.80;99.90
11221;DHT22;8517;53.546;10.104;2023-03-01T00:48:48;2.80;99.90
11221;DHT22;8517;53.546;10.104;2023-03-01T00:51:18;2.80;99.90
11221;DHT22;8517;53.546;10.104;2023-03-01T00:53:46;2.80;99.90
11221;DHT22;8517;53.546;10.104;2023-03-01T00:56:14;2.80;99.90
11221;DHT22;8517;53.546;10.104;2023-03-01T00:58:41;2.80;99.90
11221;DHT22;8517;53.546;10.104;2023-03-01T01:01:09;2.80;99.90
11221;DHT22;8517;53.546;10.104;2023-03-01T01:03:43;2.80;99.90
11221;DHT22;8517;53.546;10.104;2023-03-01T01:06:16;2.80;99.90
11221;DHT22;8517;53.546;10.104;2023-03-01T01:08:43;2.80;99.90
11221;DHT22;8517;53.546;10.104;2023-03-01T01:11:10;2.80;99.90
11221;DHT22;8517;53.546;10.104;2023-03-01T01:13:37;2.80;99.90
11221;DHT22;8517;53.546;10.104;2023-03-01T01:16:05;2.80;99.90
11221;DHT22;8517;53.546;10.104;2023-03-01T01:18:32;2.80;99.90
11221;DHT22;8517;53.546;10.104;2023-03-01T01:21:03;2.80;99.90
11221;DHT22;8517;53.546;10.104;2023-03-01T01:23:32;2.80;99.90
11221;DHT22;8517;53.546;10.104;2023-03-01T01:26:04;2.80;99.90
11221;DHT22;8517;53.546;10.104;2023-03-01T01:28:31;2.80;99.90
11221;DHT22;8517;53.546;10.104;2023-03-01T01:30:58;2.80;99.90
11221;DHT22;8517;53.546;10.104;2023-03-01T01:33:25;2.70;99.90
11221;DHT22;8517;53.546;10.104;2023-03-01T01:35:52;2.70;99.90
11221;DHT22;8517;53.546;10.104;2023-03-01T01:38:19;2.70;99.90
11221;DHT22;8517;53.546;10.104;2023-03-01T01:40:49;2.70;99.90
11221;DHT22;8517;53.546;10.104;2023-03-01T01:43:22;2.80;99.90
11221;DHT22;8517;53.546;10.104;2023-03-01T01:45:49;2.80;99.90
11221;DHT22;8517;53.546;10.104;2023-03-01T01:48:18;2.80;99.90
11221;DHT22;8517;53.546;10.104;2023-03-01T01:50:49;2.80;99.90
11221;DHT22;8517;53.546;10.104;2023-03-01T01:53:19;2.90;99.90
11221;DHT22;8517;53.546;10.104;2023-03-01T01:55:51;2.90;99.90
11221;DHT22;8517;53.546;10.104;2023-03-01T01:58:21;3.00;99.90
11221;DHT22;8517;53.546;10.104;2023-03-01T02:00:48;3.00;99.90
11221;DHT22;8517;53.546;10.104;2023-03-01T02:03:18;3.00;99.90
11221;DHT22;8517;53.546;10.104;2023-03-01T02:05:49;3.10;99.90
11221;DHT22;8517;53.546;10.104;2023-03-01T02:08:19;3.20;99.90
11221;DHT22;8517;53.546;10.104;2023-03-01T02:10:48;3.20;99.90
11221;DHT22;8517;53.546;10.104;2023-03-01T02:13:17;3.20;99.90
11221;DHT22;8517;53.546;10.104;2023-03-01T02:15:44;3.30;99.90
11221;DHT22;8517;53.546;10.104;2023-03-01T02:18:14;3.30;99.90
11221;DHT22;8517;53.546;10.104;2023-03-01T02:20:52;3.30;99.90
11221;DHT22;8517;53.546;10.104;2023-03-01T02:23:20;3.30;99.90
11221;DHT22;8517;53.546;10.104;2023-03-01T02:25:52;3.30;99.90
11221;DHT22;8517;53.546;10.104;2023-03-01T02:28:26;3.40;99.90
11221;DHT22;8517;53.546;10.104;2023-03-01T02:30:53;3.40;99.90
11221;DHT22;8517;53.546;10.104;2023-03-01T02:33:47;3.40;99.90
11221;DHT22;8517;53.546;10.104;2023-03-01T02:36:18;3.40;99.90
11221;DHT22;8517;53.546;10.104;2023-03-01T02:38:46;3.40;99.90
11221;DHT22;8517;53.546;10.104;2023-03-01T02:41:15;3.50;99.90
11221;DHT22;8517;53.546;10.104;2023-03-01T02:43:44;3.50;99.90
11221;DHT22;8517;53.546;10.104;2023-03-01T02:46:15;3.50;99.90
11221;DHT22;8517;53.546;10.104;2023-03-01T02:48:44;3.50;99.90
11221;DHT22;8517;53.546;10.104;2023-03-01T02:51:23;3.50;99.90
11221;DHT22;8517;53.546;10.104;2023-03-01T02:53:58;3.60;99.90
11221;DHT22;8517;53.546;10.104;2023-03-01T02:56:26;3.60;99.90
11221;DHT22;8517;53.546;10.104;2023-03-01T02:58:54;3.60;99.90
11221;DHT22;8517;53.546;10.104;2023-03-01T03:01:26;3.60;99.90
11221;DHT22;8517;53.546;10.104;2023-03-01T03:04:03;3.60;99.90
11221;DHT22;8517;53.546;10.104;2023-03-01T03:06:30;3.60;99.90
11221;DHT22;8517;53.546;10.104;2023-03-01T03:08:57;3.60;99.90
11221;DHT22;8517;53.546;10.104;2023-03-01T03:11:24;3.50;99.90
11221;DHT22;8517;53.546;10.104;2023-03-01T03:13:50;3.50;99.90
11221;DHT22;8517;53.546;10.104;2023-03-01T03:16:19;3.50;99.90
11221;DHT22;8517;53.546;10.104;2023-03-01T03:18:46;3.40;99.90
11221;DHT22;8517;53.546;10.104;2023-03-01T03:21:13;3.40;99.90
11221;DHT22;8517;53.546;10.104;2023-03-01T03:23:40;3.40;99.90
11221;DHT22;8517;53.546;10.104;2023-03-01T03:26:07;3.30;99.90
11221;DHT22;8517;53.546;10.104;2023-03-01T03:28:34;3.30;99.90
11221;DHT22;8517;53.546;10.104;2023-03-01T03:31:02;3.10;99.90
11221;DHT22;8517;53.546;10.104;2023-03-01T03:33:31;3.10;99.90
11221;DHT22;8517;53.546;10.104;2023-03-01T03:35:58;3.10;99.90
11221;DHT22;8517;53.546;10.104;2023-03-01T03:38:24;3.00;99.90
11221;DHT22;8517;53.546;10.104;2023-03-01T03:40:55;3.00;99.90
11221;DHT22;8517;53.546;10.104;2023-03-01T03:43:26;3.00;99.90
11221;DHT22;8517;53.546;10.104;2023-03-01T03:45:53;3.00;99.90
11221;DHT22;8517;53.546;10.104;2023-03-01T03:48:23;3.00;99.90
11221;DHT22;8517;53.546;10.104;2023-03-01T03:50:53;3.00;99.90
11221;DHT22;8517;53.546;10.104;2023-03-01T03:53:21;3.00;99.90
11221;DHT22;8517;53.546;10.104;2023-03-01T03:55:49;3.10;99.90
11221;DHT22;8517;53.546;10.104;2023-03-01T03:58:17;3.10;99.90
11221;DHT22;8517;53.546;10.104;2023-03-01T04:00:46;3.10;99.90
11221;DHT22;8517;53.546;10.104;2023-03-01T04:03:15;3.10;99.90
11221;DHT22;8517;53.546;10.104;2023-03-01T04:05:44;3.20;99.90
11221;DHT22;8517;53.546;10.104;2023-03-01T04:08:12;3.20;99.90
11221;DHT22;8517;53.546;10.104;2023-03-01T04:10:40;3.20;99.90
11221;DHT22;8517;53.546;10.104;2023-03-01T04:13:10;3.30;99.90
11221;DHT22;8517;53.546;10.104;2023-03-01T04:15:37;3.40;99.90
11221;DHT22;8517;53.546;10.104;2023-03-01T04:18:04;3.50;99.90
11221;DHT22;8517;53.546;10.104;2023-03-01T04:20:33;3.50;99.90
11221;DHT22;8517;53.546;10.104;2023-03-01T04:23:02;3.60;99.90
11221;DHT22;8517;53.546;10.104;2023-03-01T04:25:37;3.60;99.90
11221;DHT22;8517;53.546;10.104;2023-03-01T04:28:05;3.60;99.90
11221;DHT22;8517;53.546;10.104;2023-03-01T04:30:32;3.60;99.90
11221;DHT22;8517;53.546;10.104;2023-03-01T04:33:02;3.60;99.90
11221;DHT22;8517;53.546;10.104;2023-03-01T04:35:30;3.70;99.90
11221;DHT22;8517;53.546;10.104;2023-03-01T04:37:56;3.70;99.90
11221;DHT22;8517;53.546;10.104;2023-03-01T04:40:23;3.80;99.90
11221;DHT22;8517;53.546;10.104;2023-03-01T04:42:52;3.80;99.90
11221;DHT22;8517;53.546;10.104;2023-03-01T04:45:18;3.90;99.90
11221;DHT22;8517;53.546;10.104;2023-03-01T04:47:46;3.90;99.90
11221;DHT22;8517;53.546;10.104;2023-03-01T04:50:15;4.00;99.90
11221;DHT22;8517;53.546;10.104;2023-03-01T04:52:43;4.00;99.90
11221;DHT22;8517;53.546;10.104;2023-03-01T04:55:10;4.10;99.90
11221;DHT22;8517;53.546;10.104;2023-03-01T04:57:37;4.10;99.90
11221;DHT22;8517;53.546;10.104;2023-03-01T05:00:09;4.20;99.90
11221;DHT22;8517;53.546;10.104;2023-03-01T05:02:47;4.20;99.90
11221;DHT22;8517;53.546;10.104;2023-03-01T05:05:22;4.30;99.90
11221;DHT22;8517;53.546;10.104;2023-03-01T05:07:52;4.30;99.90
11221;DHT22;8517;53.546;10.104;2023-03-01T05:10:19;4.30;99.90
11221;DHT22;8517;53.546;10.104;2023-03-01T05:12:45;4.40;99.90
11221;DHT22;8517;53.546;10.104;2023-03-01T05:15:14;4.40;99.90
11221;DHT22;8517;53.546;10.104;2023-03-01T05:17:41;4.40;99.90
11221;DHT22;8517;53.546;10.104;2023-03-01T05:20:09;4.40;99.90
11221;DHT22;8517;53.546;10.104;2023-03-01T05:22:36;4.40;99.90
11221;DHT22;8517;53.546;10.104;2023-03-01T05:25:04;4.50;99.90
11221;DHT22;8517;53.546;10.104;2023-03-01T05:27:32;4.50;99.90
11221;DHT22;8517;53.546;10.104;2023-03-01T05:29:59;4.50;99.90
11221;DHT22;8517;53.546;10.104;2023-03-01T05:32:44;4.50;99.90
11221;DHT22;8517;53.546;10.104;2023-03-01T05:35:11;4.50;99.90
11221;DHT22;8517;53.546;10.104;2023-03-01T05:37:41;4.60;99.90
11221;DHT22;8517;53.546;10.104;2023-03-01T05:40:09;4.60;99.90
11221;DHT22;8517;53.546;10.104;2023-03-01T05:42:45;4.60;99.90
11221;DHT22;8517;53.546;10.104;2023-03-01T05:45:13;4.70;99.90
11221;DHT22;8517;53.546;10.104;2023-03-01T05:47:42;4.60;99.90
11221;DHT22;8517;53.546;10.104;2023-03-01T05:50:12;4.70;99.90
11221;DHT22;8517;53.546;10.104;2023-03-01T05:52:39;4.70;99.90
11221;DHT22;8517;53.546;10.104;2023-03-01T05:55:06;4.70;99.90
11221;DHT22;8517;53.546;10.104;2023-03-01T05:57:33;4.70;99.90
11221;DHT22;8517;53.546;10.104;2023-03-01T06:00:00;4.70;99.90
11221;DHT22;8517;53.546;10.104;2023-03-01T06:02:27;4.80;99.90
11221;DHT22;8517;53.546;10.104;2023-03-01T06:04:56;4.80;99.90
11221;DHT22;8517;53.546;10.104;2023-03-01T06:07:22;4.80;99.90
11221;DHT22;8517;53.546;10.104;2023-03-01T06:09:49;4.80;99.90
11221;DHT22;8517;53.546;10.104;2023-03-01T06:12:22;4.80;99.90
11221;DHT22;8517;53.546;10.104;2023-03-01T06:14:49;4.80;99.90
11221;DHT22;8517;53.546;10.104;2023-03-01T06:17:16;4.90;99.90
11221;DHT22;8517;53.546;10.104;2023-03-01T06:19:43;4.90;99.90
11221;DHT22;8517;53.546;10.104;2023-03-01T06:22:11;4.90;99.90
11221;DHT22;8517;53.546;10.104;2023-03-01T06:24:38;4.90;99.90
11221;DHT22;8517;53.546;10.104;2023-03-01T06:27:04;5.00;99.90
11221;DHT22;8517;53.546;10.104;2023-03-01T06:29:35;5.00;99.90
11221;DHT22;8517;53.546;10.104;2023-03-01T06:32:04;5.00;99.90
11221;DHT22;8517;53.546;10.104;2023-03-01T06:34:31;5.10;99.90
11221;DHT22;8517;53.546;10.104;2023-03-01T06:37:10;5.10;99.90
11221;DHT22;8517;53.546;10.104;2023-03-01T06:39:39;5.10;99.90
11221;DHT22;8517;53.546;10.104;2023-03-01T06:42:07;5.20;99.90
11221;DHT22;8517;53.546;10.104;2023-03-01T06:44:35;5.20;99.90
11221;DHT22;8517;53.546;10.104;2023-03-01T06:47:02;5.20;99.90
11221;DHT22;8517;53.546;10.104;2023-03-01T06:49:29;5.20;99.90
11221;DHT22;8517;53.546;10.104;2023-03-01T06:51:56;5.20;99.90
11221;DHT22;8517;53.546;10.104;2023-03-01T06:54:24;5.20;99.90
11221;DHT22;8517;53.546;10.104;2023-03-01T06:56:52;5.20;99.90
11221;DHT22;8517;53.546;10.104;2023-03-01T06:59:19;5.20;99.90
11221;DHT22;8517;53.546;10.104;2023-03-01T07:01:46;5.30;99.90
11221;DHT22;8517;53.546;10.104;2023-03-01T07:04:13;5.30;99.90
11221;DHT22;8517;53.546;10.104;2023-03-01T07:06:40;5.40;99.90
11221;DHT22;8517;53.546;10.104;2023-03-01T07:09:08;5.40;99.90
11221;DHT22;8517;53.546;10.104;2023-03-01T07:11:35;5.40;99.90
11221;DHT22;8517;53.546;10.104;2023-03-01T07:14:03;5.40;99.90
11221;DHT22;8517;53.546;10.104;2023-03-01T07:16:34;5.50;99.90
11221;DHT22;8517;53.546;10.104;2023-03-01T07:19:01;5.50;99.90
11221;DHT22;8517;53.546;10.104;2023-03-01T07:21:28;5.50;99.90
11221;DHT22;8517;53.546;10.104;2023-03-01T07:23:54;5.60;99.90
11221;DHT22;8517;53.546;10.104;2023-03-01T07:26:21;5.60;99.90
11221;DHT22;8517;53.546;10.104;2023-03-01T07:28:48;5.70;99.90
11221;DHT22;8517;53.546;10.104;2023-03-01T07:31:16;5.70;99.90
11221;DHT22;8517;53.546;10.104;2023-03-01T07:33:43;5.80;99.90
11221;DHT22;8517;53.546;10.104;2023-03-01T07:36:10;5.80;99.90
11221;DHT22;8517;53.546;10.104;2023-03-01T07:38:37;5.90;99.90
11221;DHT22;8517;53.546;10.104;2023-03-01T07:41:04;5.90;99.90
11221;DHT22;8517;53.546;10.104;2023-03-01T07:43:31;6.00;99.90
11221;DHT22;8517;53.546;10.104;2023-03-01T07:45:59;6.10;99.90
11221;DHT22;8517;53.546;10.104;2023-03-01T07:48:28;6.20;99.90
11221;DHT22;8517;53.546;10.104;2023-03-01T07:50:57;6.30;99.90
11221;DHT22;8517;53.546;10.104;2023-03-01T07:53:24;6.40;99.90
11221;DHT22;8517;53.546;10.104;2023-03-01T07:56:00;6.50;99.90
11221;DHT22;8517;53.546;10.104;2023-03-01T07:58:27;6.60;99.90
11221;DHT22;8517;53.546;10.104;2023-03-01T08:00:54;6.70;99.90
11221;DHT22;8517;53.546;10.104;2023-03-01T08:03:20;6.80;99.90
11221;DHT22;8517;53.546;10.104;2023-03-01T08:05:49;6.90;99.90
11221;DHT22;8517;53.546;10.104;2023-03-01T08:08:15;7.10;99.90
11221;DHT22;8517;53.546;10.104;2023-03-01T08:10:42;7.10;99.90
11221;DHT22;8517;53.546;10.104;2023-03-01T08:13:09;7.10;99.90
11221;DHT22;8517;53.546;10.104;2023-03-01T08:15:36;7.20;99.90
11221;DHT22;8517;53.546;10.104;2023-03-01T08:18:03;7.30;99.90
11221;DHT22;8517;53.546;10.104;2023-03-01T08:20:30;7.40;99.90
11221;DHT22;8517;53.546;10.104;2023-03-01T08:22:59;7.50;99.90
11221;DHT22;8517;53.546;10.104;2023-03-01T08:25:25;7.60;99.90
11221;DHT22;8517;53.546;10.104;2023-03-01T08:27:54;7.70;99.90
11221;DHT22;8517;53.546;10.104;2023-03-01T08:30:21;7.80;99.90
11221;DHT22;8517;53.546;10.104;2023-03-01T08:32:49;7.80;99.90
11221;DHT22;8517;53.546;10.104;2023-03-01T08:35:16;7.80;99.90
11221;DHT22;8517;53.546;10.104;2023-03-01T08:37:43;7.80;99.90
11221;DHT22;8517;53.546;10.104;2023-03-01T08:40:13;7.80;99.90
11221;DHT22;8517;53.546;10.104;2023-03-01T08:42:40;7.80;99.90
11221;DHT22;8517;53.546;10.104;2023-03-01T08:45:09;7.80;99.90
11221;DHT22;8517;53.546;10.104;2023-03-01T08:47:36;7.90;99.90
11221;DHT22;8517;53.546;10.104;2023-03-01T08:50:04;7.90;99.90
11221;DHT22;8517;53.546;10.104;2023-03-01T08:52:34;7.90;99.90
11221;DHT22;8517;53.546;10.104;2023-03-01T08:55:17;7.90;99.90
11221;DHT22;8517;53.546;10.104;2023-03-01T08:57:44;8.00;99.90
11221;DHT22;8517;53.546;10.104;2023-03-01T09:00:12;8.00;99.90
11221;DHT22;8517;53.546;10.104;2023-03-01T09:02:40;8.10;99.90
11221;DHT22;8517;53.546;10.104;2023-03-01T09:05:07;8.10;99.90
11221;DHT22;8517;53.546;10.104;2023-03-01T09:07:34;8.20;99.90
11221;DHT22;8517;53.546;10.104;2023-03-01T09:10:01;8.20;99.90
11221;DHT22;8517;53.546;10.104;2023-03-01T09:12:29;8.30;99.90
11221;DHT22;8517;53.546;10.104;2023-03-01T09:14:56;8.30;99.90
11221;DHT22;8517;53.546;10.104;2023-03-01T09:17:23;8.30;99.90
11221;DHT22;8517;53.546;10.104;2023-03-01T09:20:08;8.40;99.90
11221;DHT22;8517;53.546;10.104;2023-03-01T09:22:35;8.40;99.90
11221;DHT22;8517;53.546;10.104;2023-03-01T09:25:02;8.50;99.90
11221;DHT22;8517;53.546;10.104;2023-03-01T09:27:30;8.60;99.90
11221;DHT22;8517;53.546;10.104;2023-03-01T09:29:57;8.80;99.90
11221;DHT22;8517;53.546;10.104;2023-03-01T09:32:24;8.90;99.90
11221;DHT22;8517;53.546;10.104;2023-03-01T09:34:51;9.10;99.90
11221;DHT22;8517;53.546;10.104;2023-03-01T09:37:34;9.30;99.90
11221;DHT22;8517;53.546;10.104;2023-03-01T09:40:01;9.50;99.90
11221;DHT22;8517;53.546;10.104;2023-03-01T09:42:32;9.70;99.90
11221;DHT22;8517;53.546;10.104;2023-03-01T09:45:03;9.90;99.90
11221;DHT22;8517;53.546;10.104;2023-03-01T09:47:32;10.10;99.90
11221;DHT22;8517;53.546;10.104;2023-03-01T09:50:04;10.30;99.90
11221;DHT22;8517;53.546;10.104;2023-03-01T09:52:38;10.60;99.90
11221;DHT22;8517;53.546;10.104;2023-03-01T09:55:10;10.90;99.90
11221;DHT22;8517;53.546;10.104;2023-03-01T09:57:46;11.30;99.90
11221;DHT22;8517;53.546;10.104;2023-03-01T10:00:24;11.50;99.90
11221;DHT22;8517;53.546;10.104;2023-03-01T10:02:58;11.80;99.90
11221;DHT22;8517;53.546;10.104;2023-03-01T10:05:39;12.10;99.90
11221;DHT22;8517;53.546;10.104;2023-03-01T10:08:36;12.20;99.90
11221;DHT22;8517;53.546;10.104;2023-03-01T10:11:20;12.50;99.90
11221;DHT22;8517;53.546;10.104;2023-03-01T10:14:13;12.60;99.90
11221;DHT22;8517;53.546;10.104;2023-03-01T10:16:48;12.80;99.90
11221;DHT22;8517;53.546;10.104;2023-03-01T10:19:20;12.80;99.90
11221;DHT22;8517;53.546;10.104;2023-03-01T10:21:50;12.80;99.90
11221;DHT22;8517;53.546;10.104;2023-03-01T10:24:19;12.80;99.90
11221;DHT22;8517;53.546;10.104;2023-03-01T10:26:55;12.80;99.90
11221;DHT22;8517;53.546;10.104;2023-03-01T10:29:26;12.90;99.90
11221;DHT22;8517;53.546;10.104;2023-03-01T10:31:55;12.90;99.90
11221;DHT22;8517;53.546;10.104;2023-03-01T10:34:27;13.10;99.90
11221;DHT22;8517;53.546;10.104;2023-03-01T10:36:57;13.20;99.90
11221;DHT22;8517;53.546;10.104;2023-03-01T10:39:25;13.30;99.90
11221;DHT22;8517;53.546;10.104;2023-03-01T10:41:58;13.40;99.90
11221;DHT22;8517;53.546;10.104;2023-03-01T10:44:38;13.50;99.90
11221;DHT22;8517;53.546;10.104;2023-03-01T10:47:16;13.60;99.90
11221;DHT22;8517;53.546;10.104;2023-03-01T10:49:57;13.60;99.90
11221;DHT22;8517;53.546;10.104;2023-03-01T10:52:27;13.60;99.90
11221;DHT22;8517;53.546;10.104;2023-03-01T10:54:56;13.60;99.90
11221;DHT22;8517;53.546;10.104;2023-03-01T10:57:37;13.60;99.90
11221;DHT22;8517;53.546;10.104;2023-03-01T11:00:46;13.60;99.90
11221;DHT22;8517;53.546;10.104;2023-03-01T11:03:18;13.70;99.90
11221;DHT22;8517;53.546;10.104;2023-03-01T11:05:58;13.70;99.90
11221;DHT22;8517;53.546;10.104;2023-03-01T11:11:32;13.70;99.90
11221;DHT22;8517;53.546;10.104;2023-03-01T11:14:02;13.70;99.90
11221;DHT22;8517;53.546;10.104;2023-03-01T11:16:36;13.70;99.90
11221;DHT22;8517;53.546;10.104;2023-03-01T11:22:37;13.60;99.90
11221;DHT22;8517;53.546;10.104;2023-03-01T11:25:11;13.70;99.90
11221;DHT22;8517;53.546;10.104;2023-03-01T11:27:43;13.80;99.90
11221;DHT22;8517;53.546;10.104;2023-03-01T11:30:22;13.90;99.90
11221;DHT22;8517;53.546;10.104;2023-03-01T11:33:01;14.00;99.90
11221;DHT22;8517;53.546;10.104;2023-03-01T11:35:30;14.00;99.90
11221;DHT22;8517;53.546;10.104;2023-03-01T11:38:05;14.00;99.90
11221;DHT22;8517;53.546;10.104;2023-03-01T11:40:39;14.00;99.90
11221;DHT22;8517;53.546;10.104;2023-03-01T11:43:16;14.00;99.90
11221;DHT22;8517;53.546;10.104;2023-03-01T11:45:57;14.10;99.90
11221;DHT22;8517;53.546;10.104;2023-03-01T11:48:38;14.20;99.90
11221;DHT22;8517;53.546;10.104;2023-03-01T11:51:15;14.40;99.90
11221;DHT22;8517;53.546;10.104;2023-03-01T11:53:54;14.60;99.90
11221;DHT22;8517;53.546;10.104;2023-03-01T11:56:30;14.80;99.90
11221;DHT22;8517;53.546;10.104;2023-03-01T11:59:24;15.10;99.90
11221;DHT22;8517;53.546;10.104;2023-03-01T12:05:20;15.50;99.90
11221;DHT22;8517;53.546;10.104;2023-03-01T12:07:55;15.60;99.90
11221;DHT22;8517;53.546;10.104;2023-03-01T12:10:28;15.50;99.90
11221;DHT22;8517;53.546;10.104;2023-03-01T12:13:08;15.40;99.90
11221;DHT22;8517;53.546;10.104;2023-03-01T12:15:59;15.30;99.90
11221;DHT22;8517;53.546;10.104;2023-03-01T12:18:41;15.30;99.90
11221;DHT22;8517;53.546;10.104;2023-03-01T12:21:19;15.30;99.90
11221;DHT22;8517;53.546;10.104;2023-03-01T12:24:28;15.50;99.90
11221;DHT22;8517;53.546;10.104;2023-03-01T12:27:11;15.60;99.90
11221;DHT22;8517;53.546;10.104;2023-03-01T12:29:46;15.60;99.90
11221;DHT22;8517;53.546;10.104;2023-03-01T12:32:25;15.60;99.90
11221;DHT22;8517;53.546;10.104;2023-03-01T12:35:13;15.50;99.90
11221;DHT22;8517;53.546;10.104;2023-03-01T12:37:54;15.40;99.90
11221;DHT22;8517;53.546;10.104;2023-03-01T12:40:52;15.30;99.90
11221;DHT22;8517;53.546;10.104;2023-03-01T12:43:34;15.20;99.90
11221;DHT22;8517;53.546;10.104;2023-03-01T12:46:24;15.10;99.90
11221;DHT22;8517;53.546;10.104;2023-03-01T12:49:25;15.00;99.90
11221;DHT22;8517;53.546;10.104;2023-03-01T12:52:17;14.80;99.90
11221;DHT22;8517;53.546;10.104;2023-03-01T12:54:50;14.70;99.90
11221;DHT22;8517;53.546;10.104;2023-03-01T12:57:23;14.50;99.90
11221;DHT22;8517;53.546;10.104;2023-03-01T13:00:05;14.30;99.90
11221;DHT22;8517;53.546;10.104;2023-03-01T13:02:41;14.20;99.90
11221;DHT22;8517;53.546;10.104;2023-03-01T13:05:24;14.10;99.90
11221;DHT22;8517;53.546;10.104;2023-03-01T13:08:00;14.00;99.90
11221;DHT22;8517;53.546;10.104;2023-03-01T13:10:34;14.10;99.90
11221;DHT22;8517;53.546;10.104;2023-03-01T13:13:13;14.10;99.90
11221;DHT22;8517;53.546;10.104;2023-03-01T13:15:40;14.20;99.90
11221;DHT22;8517;53.546;10.104;2023-03-01T13:18:27;14.20;99.90
11221;DHT22;8517;53.546;10.104;2023-03-01T13:20:55;14.20;99.90
11221;DHT22;8517;53.546;10.104;2023-03-01T13:23:28;14.10;99.90
11221;DHT22;8517;53.546;10.104;2023-03-01T13:26:07;14.10;99.90
11221;DHT22;8517;53.546;10.104;2023-03-01T13:28:39;14.20;99.90
11221;DHT22;8517;53.546;10.104;2023-03-01T13:31:08;14.40;99.90
11221;DHT22;8517;53.546;10.104;2023-03-01T13:33:45;14.40;99.90
11221;DHT22;8517;53.546;10.104;2023-03-01T13:36:46;14.40;99.90
11221;DHT22;8517;53.546;10.104;2023-03-01T13:39:28;14.50;99.90
11221;DHT22;8517;53.546;10.104;2023-03-01T13:42:00;14.50;99.90
11221;DHT22;8517;53.546;10.104;2023-03-01T13:44:32;14.50;99.90
11221;DHT22;8517;53.546;10.104;2023-03-01T13:47:08;14.70;99.90
11221;DHT22;8517;53.546;10.104;2023-03-01T13:49:44;14.90;99.90
11221;DHT22;8517;53.546;10.104;2023-03-01T13:52:37;15.00;99.90
11221;DHT22;8517;53.546;10.104;2023-03-01T13:55:16;15.00;99.90
11221;DHT22;8517;53.546;10.104;2023-03-01T13:57:46;14.80;99.90
11221;DHT22;8517;53.546;10.104;2023-03-01T14:00:43;14.70;99.90
11221;DHT22;8517;53.546;10.104;2023-03-01T14:03:12;14.40;99.90
11221;DHT22;8517;53.546;10.104;2023-03-01T14:05:41;14.30;99.90
11221;DHT22;8517;53.546;10.104;2023-03-01T14:08:27;14.20;99.90
11221;DHT22;8517;53.546;10.104;2023-03-01T14:11:18;14.00;99.90
11221;DHT22;8517;53.546;10.104;2023-03-01T14:14:08;13.80;99.90
11221;DHT22;8517;53.546;10.104;2023-03-01T14:16:49;13.70;99.90
11221;DHT22;8517;53.546;10.104;2023-03-01T14:19:24;13.50;99.90
11221;DHT22;8517;53.546;10.104;2023-03-01T14:21:59;13.50;99.90
11221;DHT22;8517;53.546;10.104;2023-03-01T14:24:30;13.40;99.90
11221;DHT22;8517;53.546;10.104;2023-03-01T14:26:58;13.30;99.90
11221;DHT22;8517;53.546;10.104;2023-03-01T14:29:35;13.20;99.90
11221;DHT22;8517;53.546;10.104;2023-03-01T14:32:17;13.10;99.90
11221;DHT22;8517;53.546;10.104;2023-03-01T14:34:48;13.00;99.90
11221;DHT22;8517;53.546;10.104;2023-03-01T14:37:23;12.90;99.90
11221;DHT22;8517;53.546;10.104;2023-03-01T14:40:25;12.90;99.90
11221;DHT22;8517;53.546;10.104;2023-03-01T14:42:55;12.80;99.90
11221;DHT22;8517;53.546;10.104;2023-03-01T14:45:26;12.70;99.90
11221;DHT22;8517;53.546;10.104;2023-03-01T14:47:54;12.60;99.90
11221;DHT22;8517;53.546;10.104;2023-03-01T14:50:34;12.60;99.90
11221;DHT22;8517;53.546;10.104;2023-03-01T14:53:17;12.50;99.90
11221;DHT22;8517;53.546;10.104;2023-03-01T14:55:46;12.40;99.90
11221;DHT22;8517;53.546;10.104;2023-03-01T14:58:19;12.30;99.90
11221;DHT22;8517;53.546;10.104;2023-03-01T15:00:51;12.30;99.90
11221;DHT22;8517;53.546;10.104;2023-03-01T15:03:25;12.20;99.90
11221;DHT22;8517;53.546;10.104;2023-03-01T15:05:52;12.10;99.90
11221;DHT22;8517;53.546;10.104;2023-03-01T15:08:23;12.10;99.90
11221;DHT22;8517;53.546;10.104;2023-03-01T15:11:02;12.00;99.90
11221;DHT22;8517;53.546;10.104;2023-03-01T15:13:31;12.00;99.90
11221;DHT22;8517;53.546;10.104;2023-03-01T15:16:08;11.90;99.90
11221;DHT22;8517;53.546;10.104;2023-03-01T15:18:36;11.90;99.90
11221;DHT22;8517;53.546;10.104;2023-03-01T15:21:13;11.80;99.90
11221;DHT22;8517;53.546;10.104;2023-03-01T15:23:58;11.80;99.90
11221;DHT22;8517;53.546;10.104;2023-03-01T15:26:30;11.80;99.90
11221;DHT22;8517;53.546;10.104;2023-03-01T15:28:59;11.70;99.90
11221;DHT22;8517;53.546;10.104;2023-03-01T15:31:29;11.60;99.90
11221;DHT22;8517;53.546;10.104;2023-03-01T15:34:09;11.60;99.90
11221;DHT22;8517;53.546;10.104;2023-03-01T15:36:41;11.50;99.90
11221;DHT22;8517;53.546;10.104;2023-03-01T15:42:44;11.40;99.90
11221;DHT22;8517;53.546;10.104;2023-03-01T15:45:27;11.40;99.90
11221;DHT22;8517;53.546;10.104;2023-03-01T15:48:19;11.30;99.90
11221;DHT22;8517;53.546;10.104;2023-03-01T15:50:54;11.30;99.90
11221;DHT22;8517;53.546;10.104;2023-03-01T15:53:21;11.30;99.90
11221;DHT22;8517;53.546;10.104;2023-03-01T15:55:48;11.20;99.90
11221;DHT22;8517;53.546;10.104;2023-03-01T15:58:17;11.20;99.90
11221;DHT22;8517;53.546;10.104;2023-03-01T16:00:46;11.10;99.90
11221;DHT22;8517;53.546;10.104;2023-03-01T16:04:12;11.10;99.90
11221;DHT22;8517;53.546;10.104;2023-03-01T16:06:22;11.00;99.90
11221;DHT22;8517;53.546;10.104;2023-03-01T16:08:49;11.00;99.90
11221;DHT22;8517;53.546;10.104;2023-03-01T16:11:17;10.90;99.90
11221;DHT22;8517;53.546;10.104;2023-03-01T16:13:45;10.90;99.90
11221;DHT22;8517;53.546;10.104;2023-03-01T16:16:13;10.90;99.90
11221;DHT22;8517;53.546;10.104;2023-03-01T16:18:44;10.80;99.90
11221;DHT22;8517;53.546;10.104;2023-03-01T16:21:16;10.80;99.90
11221;DHT22;8517;53.546;10.104;2023-03-01T16:23:45;10.70;99.90